Time;durP1;ratioP1;P1;durP2;ratioP2;P2;SDS_P1;SDS_P2;PMS_P1;PMS_P2;Temp;Humidity;BMP_temperature;BMP_pressure;BME280_temperature;BME280_humidity;BME280_pressure;Samples;Min_cycle;Max_cycle;Signal;HPM_P1;HPM_P2
2024/02/28 00:00:00;;;;;;;138.20;58.30;;;;;;;6.62;96.00;100190.48;134821;1300;23094;-90
2024/02/28 00:03:00;;;;;;;139.80;57.10;;;;;;;6.67;95.94;100188.02;134855;1296;22434;-89
2024/02/28 00:06:01;;;;;;;136.30;58.50;;;;;;;6.68;95.85;100184.45;134843;1300;22430;-89
2024/02/28 00:09:02;;;;;;;151.40;60.60;;;;;;;6.68;95.69;100187.26;134877;1295;22557;-90
2024/02/28 00:12:02;;;;;;;140.30;60.00;;;;;;;6.70;95.77;100187.74;134764;1295;23026;-90
2024/02/28 00:15:10;;;;;;;143.50;56.90;;;;;;;6.70;95.82;100190.74;134649;1300;22514;-90
2024/02/28 00:18:11;;;;;;;140.10;58.20;;;;;;;6.72;95.80;100188.80;134771;1292;22399;-90
2024/02/28 00:21:11;;;;;;;151.20;58.00;;;;;;;6.72;95.91;100193.20;134857;1300;22399;-90
2024/02/28 00:24:12;;;;;;;143.80;59.40;;;;;;;6.67;95.65;100198.27;134925;1300;22445;-91
2024/02/28 00:27:13;;;;;;;163.30;62.60;;;;;;;6.65;95.85;100203.15;134861;1293;23340;-90
2024/02/28 00:30:13;;;;;;;158.60;62.00;;;;;;;6.61;95.94;100202.13;134798;1300;22444;-90
2024/02/28 00:33:14;;;;;;;147.60;59.40;;;;;;;6.57;95.94;100207.56;134737;1300;22590;-90
2024/02/28 00:36:17;;;;;;;144.30;60.00;;;;;;;6.51;95.90;100207.42;134761;1300;23182;-90
2024/02/28 00:39:18;;;;;;;156.40;61.30;;;;;;;6.47;96.04;100205.47;134936;1293;22347;-90
2024/02/28 00:42:18;;;;;;;153.60;58.30;;;;;;;6.44;95.94;100210.73;134784;1298;22367;-89
2024/02/28 00:45:19;;;;;;;137.90;56.40;;;;;;;6.40;96.29;100208.77;134791;1300;22217;-90
2024/02/28 00:48:19;;;;;;;147.10;57.80;;;;;;;6.39;96.33;100209.42;134762;1294;22988;-90
2024/02/28 00:51:20;;;;;;;142.60;58.50;;;;;;;6.43;96.49;100207.45;134839;1300;22447;-89
2024/02/28 00:54:21;;;;;;;145.50;57.90;;;;;;;6.44;96.61;100208.42;134943;1292;22498;-90
2024/02/28 00:57:22;;;;;;;138.80;57.50;;;;;;;6.44;96.38;100203.54;134778;1295;23248;-89
2024/02/28 01:00:22;;;;;;;134.10;55.60;;;;;;;6.45;96.67;100199.33;134904;1297;22203;-89
2024/02/28 01:03:23;;;;;;;137.50;57.00;;;;;;;6.46;96.73;100201.71;134730;1292;22430;-90
2024/02/28 01:06:24;;;;;;;138.20;55.00;;;;;;;6.49;96.77;100199.30;134829;1300;22371;-90
2024/02/28 01:09:24;;;;;;;145.40;55.80;;;;;;;6.50;96.63;100200.13;134809;1294;22377;-91
2024/02/28 01:12:25;;;;;;;144.80;55.60;;;;;;;6.52;96.86;100207.14;134749;1294;23172;-90
2024/02/28 01:15:25;;;;;;;147.50;57.30;;;;;;;6.51;96.78;100207.09;134830;1300;22424;-91
2024/02/28 01:18:28;;;;;;;132.50;56.40;;;;;;;6.53;96.94;100209.52;134820;1295;22381;-90
2024/02/28 01:21:28;;;;;;;145.30;57.80;;;;;;;6.60;97.21;100213.33;134921;1295;22379;-90
2024/02/28 01:24:29;;;;;;;128.80;53.30;;;;;;;6.67;97.19;100208.84;134825;1292;22648;-90
2024/02/28 01:27:29;;;;;;;142.70;57.60;;;;;;;6.68;97.04;100208.81;134782;1300;22368;-90
2024/02/28 01:30:30;;;;;;;135.80;55.30;;;;;;;6.69;97.01;100208.76;134760;1297;22392;-90
2024/02/28 01:33:30;;;;;;;142.10;56.80;;;;;;;6.68;96.87;100207.30;134875;1300;23163;-91
2024/02/28 01:36:31;;;;;;;136.40;53.30;;;;;;;6.69;97.01;100205.83;134652;1300;22428;-90
2024/02/28 01:39:31;;;;;;;142.00;54.60;;;;;;;6.68;96.96;100205.52;134786;1295;22549;-90
2024/02/28 01:42:32;;;;;;;137.70;55.50;;;;;;;6.67;96.71;100207.40;134691;1294;23142;-90
2024/02/28 01:45:32;;;;;;;124.50;53.70;;;;;;;6.63;96.75;100205.32;134560;1301;22455;-90
2024/02/28 01:48:33;;;;;;;134.60;52.70;;;;;;;6.62;97.03;100206.59;134815;1300;22435;-90
2024/02/28 01:51:34;;;;;;;;;;;;;;;6.66;97.11;100204.69;134875;1292;23739;-90
2024/02/28 01:54:35;;;;;;;126.10;52.50;;;;;;;6.65;97.03;100201.98;134861;1300;22419;-90
2024/02/28 01:57:37;;;;;;;132.90;53.60;;;;;;;6.66;97.10;100196.60;134653;1300;22637;-91
2024/02/28 02:00:38;;;;;;;128.20;51.80;;;;;;;6.66;97.23;100196.73;134706;1298;22391;-90
2024/02/28 02:03:43;;;;;;;132.70;51.30;;;;;;;6.70;97.28;100195.89;134735;1301;22456;-90
2024/02/28 02:06:48;;;;;;;118.20;50.60;;;;;;;6.72;97.18;100192.16;134612;1300;22716;-89
2024/02/28 02:09:50;;;;;;;130.30;54.70;;;;;;;6.76;97.32;100194.46;134646;1295;22382;-89
2024/02/28 02:12:50;;;;;;;133.10;53.40;;;;;;;6.78;97.25;100191.69;134722;1300;22448;-90
2024/02/28 02:15:51;;;;;;;139.50;52.80;;;;;;;6.77;97.13;100194.15;134874;1300;22409;-90
2024/02/28 02:18:52;;;;;;;146.50;57.20;;;;;;;6.74;97.21;100189.50;134838;1294;22430;-90
2024/02/28 02:21:57;;;;;;;147.10;55.10;;;;;;;6.72;96.95;100192.11;134610;1286;22301;-90
2024/02/28 02:24:57;;;;;;;127.10;50.40;;;;;;;6.73;97.17;100191.89;134918;1292;23199;-91
2024/02/28 02:27:59;;;;;;;137.90;53.90;;;;;;;6.73;97.23;100188.55;134860;1300;22391;-90
2024/02/28 02:30:59;;;;;;;134.00;51.40;;;;;;;6.73;97.34;100189.96;134847;1294;22510;-90
2024/02/28 02:34:00;;;;;;;122.10;50.50;;;;;;;6.73;97.26;100187.11;134870;1292;22358;-90
2024/02/28 02:37:00;;;;;;;132.70;53.20;;;;;;;6.73;97.30;100182.42;134808;1296;23018;-90
2024/02/28 02:40:01;;;;;;;150.60;53.10;;;;;;;6.73;97.28;100187.81;134743;1295;23269;-90
2024/02/28 02:43:01;;;;;;;140.00;52.20;;;;;;;6.78;97.38;100186.23;134842;1295;22378;-90
2024/02/28 02:46:02;;;;;;;149.70;51.70;;;;;;;6.83;97.88;100182.73;134843;1300;22360;-90
2024/02/28 02:49:03;;;;;;;130.00;50.30;;;;;;;6.89;97.63;100180.40;134867;1298;22465;-90
2024/02/28 02:52:03;;;;;;;126.40;51.90;;;;;;;6.92;97.54;100178.55;134908;1298;22232;-89
2024/02/28 02:55:04;;;;;;;;;;;;;;;6.94;97.62;100177.80;134930;1295;22466;-90
2024/02/28 02:58:05;;;;;;;138.80;53.10;;;;;;;6.97;97.83;100177.02;134821;1294;22423;-89
2024/02/28 03:01:05;;;;;;;128.10;51.30;;;;;;;7.01;97.60;100175.97;134874;1297;22242;-90
2024/02/28 03:04:06;;;;;;;126.20;50.70;;;;;;;7.04;97.73;100176.77;134914;1297;22281;-90
2024/02/28 03:07:06;;;;;;;134.90;54.10;;;;;;;7.04;97.45;100181.17;134718;1300;22413;-90
2024/02/28 03:10:08;;;;;;;154.20;56.60;;;;;;;7.02;97.37;100182.71;134896;1298;22258;-90
2024/02/28 03:13:08;;;;;;;145.10;55.90;;;;;;;7.04;97.46;100182.55;134816;1300;22553;-91
2024/02/28 03:16:09;;;;;;;135.60;54.90;;;;;;;7.03;97.32;100187.26;134778;1294;22503;-90
2024/02/28 03:19:12;;;;;;;155.60;56.80;;;;;;;6.98;97.05;100183.77;134838;1292;23321;-90
2024/02/28 03:22:13;;;;;;;129.30;51.60;;;;;;;6.97;97.18;100189.84;134722;1300;22392;-90
2024/02/28 03:25:13;;;;;;;135.50;52.80;;;;;;;6.98;97.34;100192.41;134788;1285;22270;-91
2024/02/28 03:28:14;;;;;;;128.60;50.60;;;;;;;6.97;97.06;100196.54;134740;1294;22396;-91
2024/02/28 03:31:14;;;;;;;139.70;53.30;;;;;;;6.93;97.22;100197.97;134802;1292;22387;-91
2024/02/28 03:34:15;;;;;;;131.10;52.20;;;;;;;6.92;97.23;100204.02;134728;1301;22260;-90
2024/02/28 03:37:15;;;;;;;132.00;51.50;;;;;;;6.90;97.11;100203.58;134843;1300;22445;-90
2024/02/28 03:40:16;;;;;;;133.90;53.80;;;;;;;6.86;97.10;100203.56;134789;1293;22418;-90
2024/02/28 03:43:16;;;;;;;141.30;52.20;;;;;;;6.85;97.31;100209.47;134926;1292;22253;-90
2024/02/28 03:46:17;;;;;;;139.70;50.70;;;;;;;6.83;97.35;100208.91;134793;1300;22425;-90
2024/02/28 03:49:17;;;;;;;136.70;51.70;;;;;;;6.81;97.23;100209.31;134726;1294;23334;-90
2024/02/28 03:52:18;;;;;;;132.20;53.30;;;;;;;6.85;97.61;100206.14;134921;1292;23116;-90
2024/02/28 03:55:18;;;;;;;141.10;52.60;;;;;;;6.85;97.28;100198.95;134696;1295;22452;-90
2024/02/28 03:58:22;;;;;;;135.80;52.20;;;;;;;6.82;97.52;100205.15;134947;1300;22438;-90
2024/02/28 04:01:22;;;;;;;152.60;54.50;;;;;;;6.83;97.55;100207.33;134884;1297;22321;-90
2024/02/28 04:04:23;;;;;;;129.40;51.80;;;;;;;6.84;97.61;100208.72;134788;1300;22441;-89
2024/02/28 04:07:23;;;;;;;130.30;53.90;;;;;;;6.83;97.55;100207.23;134848;1300;22448;-89
2024/02/28 04:10:24;;;;;;;134.20;53.40;;;;;;;6.84;97.62;100210.09;134886;1293;22439;-90
2024/02/28 04:13:27;;;;;;;131.20;51.30;;;;;;;6.85;97.62;100218.48;134887;1300;22421;-90
2024/02/28 04:16:30;;;;;;;137.40;53.90;;;;;;;6.83;97.83;100217.55;134802;1292;23513;-91
2024/02/28 04:19:37;;;;;;;132.20;52.60;;;;;;;6.83;97.92;100219.69;134796;1300;22305;-90
2024/02/28 04:22:38;;;;;;;125.90;50.50;;;;;;;6.81;97.93;100222.80;134656;1293;22437;-90
2024/02/28 04:25:40;;;;;;;144.10;54.00;;;;;;;6.83;97.93;100225.13;134681;1300;22384;-90
2024/02/28 04:28:45;;;;;;;142.20;52.00;;;;;;;6.80;97.91;100225.26;134842;1293;22448;-90
2024/02/28 04:31:46;;;;;;;130.40;50.80;;;;;;;6.77;97.95;100230.60;134750;1294;22420;-90
2024/02/28 04:34:46;;;;;;;124.10;52.10;;;;;;;6.75;98.02;100232.85;134747;1292;22418;-90
2024/02/28 04:37:47;;;;;;;131.90;52.60;;;;;;;6.78;98.27;100236.63;134688;1301;22464;-89
2024/02/28 04:40:50;;;;;;;137.40;52.50;;;;;;;6.79;98.22;100236.36;134633;1300;22288;-90
2024/02/28 04:43:50;;;;;;;132.40;53.10;;;;;;;6.81;98.22;100237.79;134827;1300;22467;-90
2024/02/28 04:46:51;;;;;;;138.00;53.60;;;;;;;6.82;98.37;100236.84;134685;1297;23387;-89
2024/02/28 04:49:51;;;;;;;130.70;51.40;;;;;;;6.82;98.28;100238.58;134856;1300;22396;-90
2024/02/28 04:52:52;;;;;;;123.40;50.70;;;;;;;6.82;98.32;100241.23;134912;1300;22419;-89
2024/02/28 04:55:52;;;;;;;127.70;51.90;;;;;;;6.84;98.44;100236.62;134685;1295;22391;-90
2024/02/28 04:58:53;;;;;;;131.20;51.10;;;;;;;6.85;98.22;100242.55;134856;1300;24318;-90
2024/02/28 05:01:54;;;;;;;;;;;;;;;6.83;98.24;100242.31;134940;1292;22455;-90
2024/02/28 05:04:54;;;;;;;120.40;50.10;;;;;;;6.82;98.36;100242.42;134762;1300;22432;-90
2024/02/28 05:07:55;;;;;;;131.80;53.30;;;;;;;6.79;98.28;100246.96;134892;1299;22447;-89
2024/02/28 05:10:55;;;;;;;130.40;53.30;;;;;;;6.72;98.16;100246.30;134845;1295;23175;-90
2024/02/28 05:13:56;;;;;;;121.80;49.60;;;;;;;6.70;98.46;100244.08;134843;1300;22469;-90
2024/02/28 05:16:57;;;;;;;120.90;49.20;;;;;;;6.70;98.69;100253.54;134923;1292;22452;-90
2024/02/28 05:19:57;;;;;;;113.70;49.50;;;;;;;6.70;98.74;100254.90;134830;1292;22561;-88
2024/02/28 05:22:58;;;;;;;;;;;;;;;6.72;98.73;100264.23;134864;1293;22870;-89
2024/02/28 05:26:03;;;;;;;119.60;49.00;;;;;;;6.69;98.73;100262.39;134829;1292;22564;-87
2024/02/28 05:29:08;;;;;;;114.10;49.10;;;;;;;6.64;98.73;100265.16;134895;1295;22478;-86
2024/02/28 05:32:09;;;;;;;117.30;47.20;;;;;;;6.65;98.96;100271.77;134832;1292;22488;-89
2024/02/28 05:35:11;;;;;;;113.10;49.30;;;;;;;6.64;98.98;100272.36;134784;1294;22353;-88
2024/02/28 05:38:12;;;;;;;111.60;48.50;;;;;;;6.60;98.90;100276.70;134856;1295;22395;-85
2024/02/28 05:41:12;;;;;;;113.10;48.10;;;;;;;6.61;99.21;100278.77;134842;1300;22154;-87
2024/02/28 05:44:13;;;;;;;115.90;49.10;;;;;;;6.63;99.20;100279.09;134679;1292;22474;-85
2024/02/28 05:47:14;;;;;;;105.70;47.50;;;;;;;6.64;99.22;100284.84;134762;1300;22157;-82
2024/02/28 05:50:15;;;;;;;102.20;45.60;;;;;;;6.61;99.23;100288.05;134865;1297;22596;-85
2024/02/28 05:53:16;;;;;;;96.00;43.10;;;;;;;6.59;99.28;100290.23;134555;1293;23279;-84
2024/02/28 05:56:19;;;;;;;101.80;45.00;;;;;;;6.56;99.40;100300.46;134850;1300;23567;-84
2024/02/28 05:59:20;;;;;;;98.00;45.00;;;;;;;6.56;99.36;100302.98;134642;1295;22267;-85
2024/02/28 06:02:20;;;;;;;97.50;47.30;;;;;;;6.55;99.59;100307.23;134847;1282;22552;-83
2024/02/28 06:05:21;;;;;;;100.20;44.30;;;;;;;6.55;99.63;100309.25;134816;1295;22289;-84
2024/02/28 06:08:22;;;;;;;110.60;45.00;;;;;;;6.51;99.65;100311.45;134796;1286;22551;-84
2024/02/28 06:11:22;;;;;;;102.70;46.10;;;;;;;6.48;99.81;100312.23;134877;1300;22525;-84
2024/02/28 06:14:23;;;;;;;89.80;43.10;;;;;;;6.45;99.75;100313.03;134756;1300;22458;-84
2024/02/28 06:17:23;;;;;;;95.10;41.90;;;;;;;6.49;100.00;100318.70;134755;1292;22395;-85
2024/02/28 06:20:27;;;;;;;92.20;41.50;;;;;;;6.54;100.00;100319.98;134579;1297;22468;-85
2024/02/28 06:23:31;;;;;;;89.90;41.70;;;;;;;6.55;100.00;100318.71;134834;1294;22416;-82
2024/02/28 06:26:31;;;;;;;83.60;39.60;;;;;;;6.55;99.95;100319.38;134825;1292;22399;-81
2024/02/28 06:29:34;;;;;;;;;;;;;;;6.56;100.00;100317.20;134831;1299;22539;-82
2024/02/28 06:32:35;;;;;;;88.80;39.60;;;;;;;6.60;100.00;100322.27;134802;1293;22268;-82
2024/02/28 06:35:36;;;;;;;97.60;42.30;;;;;;;6.62;100.00;100323.50;134879;1293;22960;-82
2024/02/28 06:38:36;;;;;;;91.40;41.10;;;;;;;6.63;100.00;100328.92;134792;1295;22443;-82
2024/02/28 06:41:37;;;;;;;92.10;40.20;;;;;;;6.64;100.00;100329.46;134886;1300;22225;-82
2024/02/28 06:44:41;;;;;;;88.20;41.20;;;;;;;6.63;100.00;100332.95;134815;1295;22539;-82
2024/02/28 06:47:45;;;;;;;85.40;40.00;;;;;;;6.63;100.00;100335.05;134801;1292;22328;-81
2024/02/28 06:50:45;;;;;;;78.00;39.10;;;;;;;6.67;100.00;100338.69;134866;1300;22481;-82
2024/02/28 06:53:46;;;;;;;85.00;39.50;;;;;;;6.68;100.00;100341.23;134791;1294;22422;-82
2024/02/28 06:56:47;;;;;;;81.60;39.40;;;;;;;6.64;100.00;100340.58;134706;1293;22393;-81
2024/02/28 06:59:50;;;;;;;81.30;38.40;;;;;;;6.61;100.00;100339.06;134777;1293;22430;-82
2024/02/28 07:02:54;;;;;;;83.50;40.70;;;;;;;6.64;100.00;100338.64;134635;1298;22625;-82
2024/02/28 07:05:54;;;;;;;81.60;39.00;;;;;;;6.67;100.00;100343.82;134712;1294;22417;-82
2024/02/28 07:08:55;;;;;;;;;;;;;;;6.73;100.00;100343.65;134752;1293;22560;-81
2024/02/28 07:11:59;;;;;;;77.80;37.50;;;;;;;6.79;100.00;100349.59;134829;1292;22295;-81
2024/02/28 07:15:04;;;;;;;73.10;36.20;;;;;;;6.83;100.00;100350.63;134881;1300;22276;-82
2024/02/28 07:18:05;;;;;;;;;;;;;;;6.88;100.00;100350.52;134804;1298;22448;-82
2024/02/28 07:21:06;;;;;;;74.70;35.60;;;;;;;6.92;100.00;100354.43;134760;1295;22981;-83
2024/02/28 07:24:07;;;;;;;71.60;34.20;;;;;;;7.00;100.00;100352.98;134550;1294;22484;-82
2024/02/28 07:27:08;;;;;;;69.30;35.30;;;;;;;7.11;100.00;100360.28;134584;1291;22499;-82
2024/02/28 07:30:09;;;;;;;71.80;37.90;;;;;;;7.21;100.00;100366.79;134516;1288;22475;-81
2024/02/28 07:33:12;;;;;;;68.70;35.40;;;;;;;7.28;100.00;100372.15;134531;1294;22281;-82
2024/02/28 07:36:13;;;;;;;74.40;38.30;;;;;;;7.27;100.00;100376.29;134571;1294;22871;-82
2024/02/28 07:39:13;;;;;;;72.90;36.70;;;;;;;7.26;100.00;100380.39;134540;1295;22427;-81
2024/02/28 07:42:17;;;;;;;73.80;36.90;;;;;;;7.31;100.00;100383.08;134560;1295;22432;-81
2024/02/28 07:45:18;;;;;;;68.30;33.10;;;;;;;7.36;100.00;100384.77;134534;1301;22470;-79
2024/02/28 07:48:19;;;;;;;84.10;40.40;;;;;;;7.40;100.00;100390.06;134554;1299;22526;-78
2024/02/28 07:51:20;;;;;;;71.10;36.70;;;;;;;7.41;100.00;100394.02;134564;1302;22576;-76
2024/02/28 07:54:20;;;;;;;66.00;33.60;;;;;;;7.48;100.00;100390.52;134557;1302;23171;-74
2024/02/28 07:57:21;;;;;;;64.50;32.40;;;;;;;7.57;100.00;100392.51;134500;1295;22300;-80
2024/02/28 08:00:22;;;;;;;62.80;32.30;;;;;;;7.64;100.00;100395.95;134547;1302;22343;-81
2024/02/28 08:03:26;;;;;;;62.20;31.70;;;;;;;7.64;100.00;100391.69;134477;1295;22463;-80
2024/02/28 08:06:27;;;;;;;57.00;31.70;;;;;;;7.61;100.00;100392.53;134562;1294;23569;-81
2024/02/28 08:09:28;;;;;;;61.30;31.60;;;;;;;7.57;100.00;100396.50;134554;1298;22210;-80
2024/02/28 08:12:29;;;;;;;58.40;32.30;;;;;;;7.62;100.00;100400.15;134347;1295;22483;-81
2024/02/28 08:15:29;;;;;;;60.70;33.50;;;;;;;7.69;100.00;100402.17;134550;1293;22518;-81
2024/02/28 08:18:37;;;;;;;60.00;31.50;;;;;;;7.73;100.00;100403.94;134539;1294;22259;-81
2024/02/28 08:21:38;;;;;;;61.80;32.90;;;;;;;7.75;100.00;100405.46;134486;1300;22225;-81
2024/02/28 08:24:39;;;;;;;52.60;30.00;;;;;;;7.76;100.00;100408.39;134499;1300;23146;-82
2024/02/28 08:27:42;;;;;;;;;;;;;;;7.79;100.00;100409.33;134517;1295;23323;-83
2024/02/28 08:30:42;;;;;;;55.30;30.70;;;;;;;7.77;100.00;100411.46;134484;1297;23048;-81
2024/02/28 08:33:45;;;;;;;51.90;31.00;;;;;;;7.73;100.00;100413.12;134473;1295;22442;-81
2024/02/28 08:36:46;;;;;;;56.90;31.20;;;;;;;7.73;100.00;100411.28;134501;1294;23326;-81
2024/02/28 08:39:46;;;;;;;48.40;29.70;;;;;;;7.75;100.00;100412.23;134500;1294;22489;-81
2024/02/28 08:42:48;;;;;;;58.80;31.30;;;;;;;7.74;100.00;100411.91;134493;1294;23271;-82
2024/02/28 08:45:51;;;;;;;50.00;28.30;;;;;;;7.76;100.00;100413.86;134492;1294;22451;-81
2024/02/28 08:48:51;;;;;;;47.70;28.20;;;;;;;7.81;100.00;100420.80;134466;1295;22364;-81
2024/02/28 08:51:52;;;;;;;;;;;;;;;7.79;100.00;100419.56;134488;1297;22642;-81
2024/02/28 08:54:56;;;;;;;46.30;25.60;;;;;;;7.79;100.00;100420.25;134468;1294;22482;-80
2024/02/28 08:57:56;;;;;;;40.00;24.80;;;;;;;7.81;100.00;100425.73;134509;1294;22481;-81
2024/02/28 09:00:57;;;;;;;43.00;25.70;;;;;;;7.79;100.00;100423.64;134466;1294;22412;-81
2024/02/28 09:03:57;;;;;;;43.30;25.60;;;;;;;7.77;100.00;100423.28;134475;1294;22389;-80
2024/02/28 09:06:58;;;;;;;43.90;25.80;;;;;;;7.76;100.00;100424.09;134472;1299;22376;-80
2024/02/28 09:09:59;;;;;;;46.10;26.00;;;;;;;7.74;100.00;100423.60;134475;1296;22286;-80
2024/02/28 09:12:59;;;;;;;42.10;25.40;;;;;;;7.74;100.00;100428.14;134465;1294;22680;-84
2024/02/28 09:16:03;;;;;;;43.50;25.90;;;;;;;7.80;100.00;100429.37;134501;1294;22432;-84
2024/02/28 09:19:04;;;;;;;43.90;25.00;;;;;;;7.81;100.00;100434.66;134523;1295;22439;-82
2024/02/28 09:22:05;;;;;;;;;;;;;;;7.85;100.00;100433.81;134746;1293;22465;-84
2024/02/28 09:25:08;;;;;;;42.00;25.00;;;;;;;7.86;100.00;100436.88;134902;1297;22260;-86
2024/02/28 09:28:12;;;;;;;46.10;27.10;;;;;;;7.89;100.00;100440.47;134866;1300;22476;-85
2024/02/28 09:31:15;;;;;;;48.00;27.90;;;;;;;7.92;100.00;100434.35;134841;1298;22362;-80
2024/02/28 09:34:15;;;;;;;46.20;27.50;;;;;;;7.96;100.00;100437.16;134891;1298;22398;-86
2024/02/28 09:37:17;;;;;;;41.40;25.90;;;;;;;7.99;100.00;100439.04;134824;1293;22401;-84
2024/02/28 09:40:18;;;;;;;41.10;23.50;;;;;;;7.99;100.00;100436.34;134876;1292;22525;-85
2024/02/28 09:43:34;;;;;;;39.70;23.70;;;;;;;8.03;100.00;100442.41;134869;1292;22251;-85
2024/02/28 09:46:35;;;;;;;36.40;22.50;;;;;;;8.09;100.00;100449.17;134846;1297;23117;-83
2024/02/28 09:49:38;;;;;;;41.40;23.90;;;;;;;8.11;100.00;100450.79;134883;1285;22479;-82
2024/02/28 09:52:39;;;;;;;39.10;23.20;;;;;;;8.13;100.00;100453.95;134622;1300;22410;-83
2024/02/28 09:55:45;;;;;;;34.00;20.40;;;;;;;8.11;99.95;100457.84;134839;1293;23321;-83
2024/02/28 09:58:48;;;;;;;34.70;21.60;;;;;;;8.06;100.00;100457.77;134745;1293;22439;-83
2024/02/28 10:01:57;;;;;;;31.90;21.40;;;;;;;8.09;99.98;100461.36;132263;1299;3420217;-82
2024/02/28 10:04:58;;;;;;;31.40;19.40;;;;;;;8.02;100.00;100467.44;134844;1292;23434;-82
2024/02/28 10:08:09;;;;;;;33.40;19.80;;;;;;;7.97;100.00;100475.29;134825;1297;22370;-83
2024/02/28 10:11:22;;;;;;;27.30;17.50;;;;;;;7.94;99.93;100474.35;134816;1298;22492;-84
2024/02/28 10:14:25;;;;;;;32.00;18.20;;;;;;;7.90;99.87;100478.61;134821;1292;22387;-83
2024/02/28 10:17:26;;;;;;;30.30;17.00;;;;;;;7.89;99.94;100481.00;134781;1293;22580;-85
2024/02/28 10:20:36;;;;;;;30.40;18.10;;;;;;;7.87;99.97;100478.92;134824;1299;22328;-84
2024/02/28 10:23:37;;;;;;;29.10;17.70;;;;;;;7.86;100.00;100475.27;134796;1294;23298;-84
2024/02/28 10:26:55;;;;;;;;;;;;;;;7.86;100.00;100472.67;134860;1293;22474;-83
2024/02/28 10:29:55;;;;;;;31.30;17.90;;;;;;;7.85;100.00;100474.47;134838;1293;23183;-83
2024/02/28 10:32:56;;;;;;;30.50;18.20;;;;;;;7.85;100.00;100475.51;134799;1300;22531;-84
2024/02/28 10:35:57;;;;;;;;;;;;;;;7.87;100.00;100482.42;134864;1295;23172;-83
2024/02/28 10:38:58;;;;;;;24.00;14.20;;;;;;;7.86;100.00;100482.18;134838;1292;22837;-83
2024/02/28 10:42:03;;;;;;;24.80;14.10;;;;;;;7.85;100.00;100488.58;134843;1298;22428;-83
2024/02/28 10:45:10;;;;;;;22.90;14.20;;;;;;;7.82;100.00;100485.16;134809;1296;22482;-83
2024/02/28 10:48:18;;;;;;;25.70;16.40;;;;;;;7.78;100.00;100482.13;134885;1289;22460;-84
2024/02/28 10:51:24;;;;;;;26.40;14.40;;;;;;;7.75;100.00;100486.13;134847;1295;22307;-84
2024/02/28 10:54:31;;;;;;;23.80;14.90;;;;;;;7.72;100.00;100497.00;134662;1296;22356;-84
2024/02/28 10:57:36;;;;;;;24.00;14.00;;;;;;;7.70;100.00;100499.48;134852;1299;22536;-85
2024/02/28 11:00:42;;;;;;;22.90;13.70;;;;;;;7.65;100.00;100507.28;134827;1293;22450;-84
2024/02/28 11:03:46;;;;;;;22.10;13.40;;;;;;;7.61;100.00;100508.54;134844;1292;22244;-86
2024/02/28 11:06:58;;;;;;;19.60;12.50;;;;;;;7.58;100.00;100509.33;134784;1296;22442;-86
2024/02/28 11:10:15;;;;;;;20.50;12.80;;;;;;;7.54;100.00;100510.05;134808;1301;22430;-83
2024/02/28 11:13:34;;;;;;;15.20;10.70;;;;;;;7.53;100.00;100512.08;134619;1295;22447;-83
2024/02/28 11:16:36;;;;;;;13.10;9.10;;;;;;;7.50;100.00;100517.09;134636;1293;23014;-84
2024/02/28 11:19:45;;;;;;;11.90;8.70;;;;;;;7.48;100.00;100522.23;134823;1295;22563;-89
2024/02/28 11:22:46;;;;;;;12.20;7.90;;;;;;;7.47;100.00;100523.56;134842;1300;23213;-87
2024/02/28 11:25:47;;;;;;;12.30;8.30;;;;;;;7.47;100.00;100526.04;134843;1300;22411;-83
2024/02/28 11:28:47;;;;;;;10.80;7.20;;;;;;;7.49;100.00;100529.52;134870;1297;22825;-91
2024/02/28 11:31:49;;;;;;;11.50;7.80;;;;;;;7.49;100.00;100534.77;134867;1293;22388;-87
2024/02/28 11:34:53;;;;;;;8.70;6.80;;;;;;;7.46;100.00;100529.77;134741;1300;23119;-81
2024/02/28 11:37:57;;;;;;;11.40;6.70;;;;;;;7.42;100.00;100536.98;134851;1295;22278;-83
2024/02/28 11:41:00;;;;;;;10.20;7.90;;;;;;;7.37;100.00;100544.50;134844;1295;22377;-81
2024/02/28 11:44:03;;;;;;;9.20;6.60;;;;;;;7.31;100.00;100546.25;134668;1292;23514;-84
2024/02/28 11:47:04;;;;;;;10.50;7.00;;;;;;;7.25;100.00;100548.19;134834;1298;22411;-86
2024/02/28 11:50:06;;;;;;;9.20;6.90;;;;;;;7.19;100.00;100551.15;134858;1297;22404;-91
2024/02/28 11:53:10;;;;;;;9.80;6.30;;;;;;;7.21;100.00;100550.81;134843;1282;22209;-82
2024/02/28 11:56:17;;;;;;;9.70;6.30;;;;;;;7.27;100.00;100545.75;134851;1300;23611;-83
2024/02/28 11:59:18;;;;;;;9.80;6.00;;;;;;;7.30;100.00;100545.29;134808;1295;22458;-83
2024/02/28 12:02:18;;;;;;;10.50;5.80;;;;;;;7.31;100.00;100544.80;134819;1300;22970;-82
2024/02/28 12:05:22;;;;;;;9.10;5.70;;;;;;;7.34;100.00;100547.41;134843;1293;22447;-82
2024/02/28 12:08:22;;;;;;;9.00;5.90;;;;;;;7.39;100.00;100545.39;134845;1293;22405;-83
2024/02/28 12:11:28;;;;;;;7.50;6.10;;;;;;;7.43;100.00;100552.77;134828;1299;22519;-82
2024/02/28 12:14:31;;;;;;;7.00;5.70;;;;;;;7.42;100.00;100549.16;134837;1296;22386;-79
2024/02/28 12:17:32;;;;;;;5.80;5.20;;;;;;;7.38;100.00;100551.61;134786;1300;22431;-80
2024/02/28 12:20:32;;;;;;;7.50;5.80;;;;;;;7.35;100.00;100549.73;134825;1293;23037;-82
2024/02/28 12:23:33;;;;;;;15.80;9.10;;;;;;;7.34;100.00;100553.21;134648;1295;22410;-83
2024/02/28 12:26:33;;;;;;;11.40;8.80;;;;;;;7.32;100.00;100554.02;134616;1295;22446;-82
2024/02/28 12:29:34;;;;;;;11.20;7.70;;;;;;;7.33;100.00;100553.80;134649;1297;22383;-81
2024/02/28 12:32:40;;;;;;;;;;;;;;;7.31;100.00;100556.78;134640;1296;22471;-82
2024/02/28 12:35:41;;;;;;;12.90;7.70;;;;;;;7.28;100.00;100557.64;134642;1295;23183;-82
2024/02/28 12:38:42;;;;;;;10.20;7.40;;;;;;;7.25;100.00;100556.08;134582;1299;22454;-82
2024/02/28 12:41:42;;;;;;;11.60;8.90;;;;;;;7.24;100.00;100557.10;134565;1295;23311;-82
2024/02/28 12:44:45;;;;;;;12.40;8.60;;;;;;;7.17;100.00;100554.45;134636;1298;22498;-81
2024/02/28 12:47:46;;;;;;;19.10;10.40;;;;;;;7.13;100.00;100556.61;134632;1298;22441;-82
2024/02/28 12:50:49;;;;;;;21.50;10.60;;;;;;;7.13;100.00;100558.19;134615;1294;22306;-82
2024/02/28 12:53:52;;;;;;;18.30;10.80;;;;;;;7.13;100.00;100565.73;134621;1301;22434;-82
2024/02/28 12:56:53;;;;;;;13.80;9.80;;;;;;;7.13;100.00;100562.27;134622;1298;22461;-82
2024/02/28 12:59:53;;;;;;;9.60;7.30;;;;;;;7.12;100.00;100565.14;134616;1301;22464;-83
2024/02/28 13:02:55;;;;;;;10.10;7.10;;;;;;;7.14;100.00;100571.48;134616;1295;22237;-82
2024/02/28 13:05:55;;;;;;;8.60;6.60;;;;;;;7.10;100.00;100572.31;134633;1295;23082;-82
2024/02/28 13:08:58;;;;;;;8.70;6.50;;;;;;;7.09;100.00;100570.36;134647;1301;22445;-82
2024/02/28 13:11:59;;;;;;;8.30;6.40;;;;;;;7.08;100.00;100571.93;134646;1297;22451;-82
2024/02/28 13:14:59;;;;;;;7.90;5.50;;;;;;;7.06;100.00;100571.66;134587;1301;22756;-82
2024/02/28 13:18:01;;;;;;;7.80;5.60;;;;;;;7.00;100.00;100573.02;134653;1297;22548;-83
2024/02/28 13:21:04;;;;;;;7.30;5.40;;;;;;;6.97;100.00;100574.39;134609;1295;22508;-82
2024/02/28 13:24:05;;;;;;;6.90;5.50;;;;;;;6.93;100.00;100576.92;134635;1294;23103;-82
2024/02/28 13:27:06;;;;;;;8.10;5.80;;;;;;;6.90;100.00;100577.61;134674;1301;22504;-82
2024/02/28 13:30:10;;;;;;;9.40;6.90;;;;;;;6.85;100.00;100580.84;134595;1299;23185;-82
2024/02/28 13:33:10;;;;;;;10.40;7.40;;;;;;;6.81;100.00;100584.38;134640;1294;22435;-82
2024/02/28 13:36:16;;;;;;;9.30;7.20;;;;;;;6.72;100.00;100591.96;134644;1296;22456;-83
2024/02/28 13:39:22;;;;;;;11.30;7.70;;;;;;;6.65;100.00;100595.20;134651;1294;22398;-83
2024/02/28 13:42:24;;;;;;;13.20;8.00;;;;;;;6.59;100.00;100594.85;134548;1294;22550;-83